createdAt,value
2022-08-05T00:00:22.700Z,100375.03
2022-08-05T00:02:52.533Z,100370.59
2022-08-05T00:06:02.133Z,100378.44
2022-08-05T00:08:34.182Z,100381.84
2022-08-05T00:11:03.496Z,100386.66
2022-08-05T00:13:38.998Z,100404.25
2022-08-05T00:16:12.945Z,100410.88
2022-08-05T00:18:44.715Z,100401.13
2022-08-05T00:21:14.816Z,100396.22
2022-08-05T00:23:53.676Z,100394.13
2022-08-05T00:26:35.497Z,100387.66
2022-08-05T00:29:07.889Z,100392.19
2022-08-05T00:31:53.237Z,100392.59
2022-08-05T00:34:56.732Z,100396.97
2022-08-05T00:37:20.163Z,100395.75
2022-08-05T00:39:57.418Z,100392.06
2022-08-05T00:42:35.324Z,100397.88
2022-08-05T00:45:11.705Z,100389.84
2022-08-05T00:47:55.975Z,100391.00
2022-08-05T00:50:27.625Z,100389.53
2022-08-05T00:52:58.013Z,100378.41
2022-08-05T00:55:42.325Z,100393.94
2022-08-05T00:58:13.756Z,100392.97
2022-08-05T01:00:46.611Z,100395.94
2022-08-05T01:03:23.250Z,100391.44
2022-08-05T01:05:54.514Z,100394.28
2022-08-05T01:08:41.128Z,100389.03
2022-08-05T01:11:21.880Z,100387.34
2022-08-05T01:14:08.450Z,100390.03
2022-08-05T01:16:46.865Z,100389.88
2022-08-05T01:19:30.381Z,100396.53
2022-08-05T01:22:34.960Z,100396.69
2022-08-05T01:25:39.603Z,100399.53
2022-08-05T01:28:19.870Z,100399.09
2022-08-05T01:30:53.882Z,100402.19
2022-08-05T01:33:29.539Z,100402.94
2022-08-05T01:36:12.807Z,100414.91
2022-08-05T01:38:43.147Z,100414.38
2022-08-05T01:41:17.241Z,100416.63
2022-08-05T01:43:54.114Z,100416.63
2022-08-05T01:46:42.154Z,100415.06
2022-08-05T01:49:23.828Z,100413.53
2022-08-05T01:51:58.808Z,100409.28
2022-08-05T01:54:33.000Z,100410.25
2022-08-05T01:58:29.495Z,100411.81
2022-08-05T01:59:58.025Z,100425.22
2022-08-05T02:02:30.463Z,100425.22
2022-08-05T02:05:03.064Z,100435.25
2022-08-05T02:07:33.693Z,100445.44
2022-08-05T02:10:05.034Z,100448.84
2022-08-05T02:12:41.636Z,100468.47
2022-08-05T02:15:19.794Z,100489.66
2022-08-05T02:18:31.820Z,100501.25
2022-08-05T02:21:00.096Z,100512.09
2022-08-05T02:23:35.651Z,100511.69
2022-08-05T02:26:08.502Z,100516.78
2022-08-05T02:28:45.928Z,100511.97
2022-08-05T02:31:22.538Z,100516.34
2022-08-05T02:33:57.460Z,100511.09
2022-08-05T02:36:31.418Z,100508.72
2022-08-05T02:39:03.943Z,100479.34
2022-08-05T02:41:57.749Z,100482.03
2022-08-05T02:44:28.796Z,100499.38
2022-08-05T02:47:01.838Z,100504.03
2022-08-05T02:49:36.723Z,100510.09
2022-08-05T02:52:11.554Z,100506.72
2022-08-05T02:54:51.138Z,100523.81
2022-08-05T02:58:20.020Z,100523.13
2022-08-05T03:00:15.891Z,100529.19
2022-08-05T03:02:50.243Z,100532.41
2022-08-05T03:05:21.891Z,100529.72
2022-08-05T03:08:10.602Z,100513.78
2022-08-05T03:10:40.760Z,100500.47
2022-08-05T03:13:18.816Z,100505.25
2022-08-05T03:15:57.308Z,100503.56
2022-08-05T03:18:30.804Z,100514.97
2022-08-05T03:21:00.544Z,100518.41
2022-08-05T03:23:30.794Z,100504.16
2022-08-05T03:26:30.123Z,100464.84
2022-08-05T03:28:54.192Z,100409.78
2022-08-05T03:31:55.890Z,100359.97
2022-08-05T03:34:17.446Z,100429.78
2022-08-05T03:36:48.381Z,100403.41
2022-08-05T03:39:27.276Z,100387.31
2022-08-05T03:41:57.683Z,100381.81
2022-08-05T03:44:29.149Z,100373.91
2022-08-05T03:46:58.883Z,100367.69
2022-08-05T03:49:51.353Z,100359.50
2022-08-05T03:52:48.461Z,100368.13
2022-08-05T03:56:05.164Z,100387.13
2022-08-05T03:58:08.499Z,100421.28
2022-08-05T04:00:41.948Z,100442.00
2022-08-05T04:03:26.673Z,100460.06
2022-08-05T04:06:01.471Z,100458.94
2022-08-05T04:08:36.183Z,100459.63
2022-08-05T04:11:08.572Z,100450.66
2022-08-05T04:13:50.590Z,100449.78
2022-08-05T04:16:24.046Z,100451.50
2022-08-05T04:18:57.686Z,100458.16
2022-08-05T04:22:08.824Z,100466.78
2022-08-05T04:24:22.743Z,100477.63
2022-08-05T04:26:52.671Z,100479.31
2022-08-05T04:29:22.344Z,100471.16
2022-08-05T04:31:52.849Z,100469.88
2022-08-05T04:34:32.814Z,100470.13
2022-08-05T04:37:07.362Z,100460.28
2022-08-05T04:39:37.362Z,100448.56
2022-08-05T04:42:09.948Z,100442.78
2022-08-05T04:44:40.544Z,100429.38
2022-08-05T04:47:10.690Z,100437.56
2022-08-05T04:50:01.461Z,100458.16
2022-08-05T04:52:34.549Z,100487.09
2022-08-05T04:55:14.665Z,100477.22
2022-08-05T04:57:51.575Z,100449.44
2022-08-05T05:00:23.966Z,100437.88
2022-08-05T05:02:53.930Z,100447.75
2022-08-05T05:05:28.350Z,100459.72
2022-08-05T05:08:04.303Z,100450.13
2022-08-05T05:10:35.207Z,100447.44
2022-08-05T05:13:05.232Z,100445.59
2022-08-05T05:15:59.533Z,100455.63
2022-08-05T05:18:31.646Z,100455.94
2022-08-05T05:21:04.362Z,100457.88
2022-08-05T05:24:01.851Z,100458.75
2022-08-05T05:26:28.744Z,100459.84
2022-08-05T05:29:14.580Z,100458.63
2022-08-05T05:31:46.401Z,100468.66
2022-08-05T05:34:21.212Z,100476.53
2022-08-05T05:36:56.487Z,100478.03
2022-08-05T05:39:34.499Z,100471.94
2022-08-05T05:42:06.164Z,100474.16
2022-08-05T05:44:37.785Z,100471.63
2022-08-05T05:47:23.539Z,100462.84
2022-08-05T05:50:01.606Z,100470.78
2022-08-05T05:52:34.647Z,100477.63
2022-08-05T05:55:14.390Z,100483.72
2022-08-05T05:57:53.009Z,100488.34
2022-08-05T06:00:31.773Z,100483.84
2022-08-05T06:03:40.757Z,100473.78
2022-08-05T06:05:55.597Z,100490.84
2022-08-05T06:08:32.218Z,100501.41
2022-08-05T06:11:05.083Z,100492.13
2022-08-05T06:13:40.855Z,100482.41
2022-08-05T06:16:29.205Z,100494.22
2022-08-05T06:19:02.083Z,100496.91
2022-08-05T06:21:37.553Z,100486.91
2022-08-05T06:24:11.571Z,100493.28
2022-08-05T06:26:51.227Z,100509.19
2022-08-05T06:29:26.488Z,100516.56
2022-08-05T06:32:25.445Z,100512.19
2022-08-05T06:34:59.168Z,100504.44
2022-08-05T06:37:55.773Z,100508.94
2022-08-05T06:40:21.215Z,100519.66
2022-08-05T06:42:54.575Z,100526.00
2022-08-05T06:46:02.959Z,100529.63
2022-08-05T06:48:53.820Z,100533.56
2022-08-05T06:51:07.366Z,100541.59
2022-08-05T06:53:39.550Z,100538.31
2022-08-05T06:56:25.681Z,100543.22
2022-08-05T06:58:59.185Z,100548.72
2022-08-05T07:01:32.724Z,100557.72
2022-08-05T07:04:04.080Z,100558.03
2022-08-05T07:06:34.439Z,100551.25
2022-08-05T07:09:04.829Z,100562.63
2022-08-05T07:11:37.203Z,100546.78
2022-08-05T07:14:29.729Z,100560.31
2022-08-05T07:17:59.045Z,100562.75
2022-08-05T07:20:31.336Z,100569.25
2022-08-05T07:22:45.727Z,100568.06
2022-08-05T07:25:54.153Z,100578.91
2022-08-05T07:28:09.624Z,100572.94
2022-08-05T07:30:44.407Z,100581.38
2022-08-05T07:33:21.332Z,100593.28
2022-08-05T07:36:21.235Z,100594.66
2022-08-05T07:38:52.519Z,100584.19
2022-08-05T07:42:13.332Z,100584.19
2022-08-05T07:44:19.500Z,100593.31
2022-08-05T07:46:52.055Z,100590.06
2022-08-05T07:49:23.589Z,100601.81
2022-08-05T07:51:55.067Z,100613.50
2022-08-05T07:54:31.413Z,100628.81
2022-08-05T07:57:17.594Z,100624.19
2022-08-05T07:59:53.892Z,100617.41
2022-08-05T08:02:31.421Z,100622.84
2022-08-05T08:05:20.459Z,100624.44
2022-08-05T08:07:59.686Z,100630.88
2022-08-05T08:10:30.533Z,100648.03
2022-08-05T08:13:01.628Z,100652.41
2022-08-05T08:16:33.949Z,100661.41
2022-08-05T08:18:23.942Z,100658.59
2022-08-05T08:21:03.134Z,100662.38
2022-08-05T08:24:02.807Z,100672.84
2022-08-05T08:26:26.840Z,100694.22
2022-08-05T08:29:22.244Z,100689.63
2022-08-05T08:31:49.474Z,100693.50
2022-08-05T08:34:30.350Z,100702.78
2022-08-05T08:37:05.050Z,100709.56
2022-08-05T08:39:37.797Z,100702.78
2022-08-05T08:42:27.575Z,100700.81
2022-08-05T08:45:22.306Z,100698.13
2022-08-05T08:48:07.750Z,100702.78
2022-08-05T08:51:03.994Z,100701.28
2022-08-05T08:53:44.398Z,100706.66
2022-08-05T08:56:15.177Z,100699.34
2022-08-05T08:58:47.967Z,100706.13
2022-08-05T09:01:19.185Z,100712.34
2022-08-05T09:03:54.476Z,100726.22
2022-08-05T09:06:30.904Z,100724.88
2022-08-05T09:09:02.143Z,100718.44
2022-08-05T09:11:50.748Z,100722.31
2022-08-05T09:14:57.983Z,100721.97
2022-08-05T09:17:15.938Z,100730.47
2022-08-05T09:20:05.144Z,100734.50
2022-08-05T09:23:07.923Z,100732.06
2022-08-05T09:26:03.755Z,100732.78
2022-08-05T09:28:34.541Z,100743.75
2022-08-05T09:31:18.123Z,100742.88
2022-08-05T09:33:55.428Z,100737.53
2022-08-05T09:36:27.312Z,100751.44
2022-08-05T09:39:01.182Z,100744.28
2022-08-05T09:41:39.090Z,100745.97
2022-08-05T09:44:11.121Z,100744.16
2022-08-05T09:46:50.109Z,100752.16
2022-08-05T09:49:40.341Z,100758.50
2022-08-05T09:52:23.529Z,100759.47
2022-08-05T09:55:00.256Z,100758.69
2022-08-05T09:57:43.324Z,100769.34
2022-08-05T10:00:16.001Z,100767.81
2022-08-05T10:02:47.746Z,100774.88
2022-08-05T10:05:20.918Z,100782.03
2022-08-05T10:08:10.898Z,100784.03
2022-08-05T10:10:54.104Z,100793.53
2022-08-05T10:13:45.766Z,100789.75
2022-08-05T10:16:33.891Z,100798.03
2022-08-05T10:19:04.314Z,100797.53
2022-08-05T10:21:40.834Z,100799.13
2022-08-05T10:24:13.645Z,100806.66
2022-08-05T10:26:51.516Z,100804.97
2022-08-05T10:30:41.191Z,100810.78
2022-08-05T10:32:52.644Z,100811.41
2022-08-05T10:35:06.887Z,100823.94
2022-08-05T10:37:40.193Z,100826.38
2022-08-05T10:40:22.371Z,100825.88
2022-08-05T10:43:02.378Z,100839.00
2022-08-05T10:45:40.071Z,100838.16
2022-08-05T10:48:52.400Z,100841.56
2022-08-05T10:51:28.780Z,100842.56
2022-08-05T10:54:01.609Z,100848.53
2022-08-05T10:56:52.853Z,100850.09
2022-08-05T11:00:02.219Z,100855.19
2022-08-05T11:02:37.597Z,100845.41
2022-08-05T11:05:11.977Z,100855.91
2022-08-05T11:08:12.773Z,100863.72
2022-08-05T11:11:01.457Z,100869.44
2022-08-05T11:13:54.979Z,100858.66
2022-08-05T11:16:33.998Z,100862.88
2022-08-05T11:20:10.371Z,100869.66
2022-08-05T11:22:42.459Z,100864.06
2022-08-05T11:26:04.584Z,100867.41
2022-08-05T11:28:43.081Z,100864.50
2022-08-05T11:31:58.458Z,100860.44
2022-08-05T11:34:50.858Z,100861.38
2022-08-05T11:38:27.962Z,100865.31
2022-08-05T11:41:35.639Z,100862.50
2022-08-05T11:44:07.567Z,100870.03
2022-08-05T11:47:09.563Z,100863.66
2022-08-05T11:49:29.397Z,100865.56
2022-08-05T11:52:08.822Z,100859.00
2022-08-05T11:54:43.454Z,100857.16
2022-08-05T11:57:25.075Z,100869.19
2022-08-05T11:59:56.851Z,100870.34
2022-08-05T12:02:33.051Z,100869.25
2022-08-05T12:05:07.831Z,100871.41
2022-08-05T12:08:03.360Z,100869.31
2022-08-05T12:10:45.955Z,100870.03
2022-08-05T12:13:47.617Z,100869.88
2022-08-05T12:16:14.379Z,100877.25
2022-08-05T12:18:53.145Z,100876.88
2022-08-05T12:21:26.858Z,100874.06
2022-08-05T12:24:07.079Z,100876.31
2022-08-05T12:26:38.746Z,100870.50
2022-08-05T12:29:11.861Z,100883.09
2022-08-05T12:31:53.731Z,100878.25
2022-08-05T12:34:28.330Z,100884.94
2022-08-05T12:36:59.343Z,100877.22
2022-08-05T12:39:37.062Z,100882.19
2022-08-05T12:42:14.887Z,100893.13
2022-08-05T12:44:45.896Z,100897.06
2022-08-05T12:47:31.361Z,100899.81
2022-08-05T12:50:04.165Z,100901.38
2022-08-05T12:52:39.135Z,100894.56
2022-08-05T12:55:26.520Z,100900.00
2022-08-05T12:58:49.310Z,100902.53
2022-08-05T13:02:01.238Z,100910.31
2022-08-05T13:03:45.491Z,100910.91
2022-08-05T13:06:19.962Z,100910.91
2022-08-05T13:08:51.777Z,100911.31
2022-08-05T13:12:02.150Z,100923.34
2022-08-05T13:14:24.538Z,100922.50
2022-08-05T13:17:05.956Z,100932.22
2022-08-05T13:19:40.454Z,100928.59
2022-08-05T13:22:28.314Z,100937.50
2022-08-05T13:25:05.477Z,100945.84
2022-08-05T13:27:40.739Z,100945.53
2022-08-05T13:30:34.984Z,100951.31
2022-08-05T13:33:02.571Z,100953.41
2022-08-05T13:35:43.388Z,100953.53
2022-08-05T13:38:28.338Z,100951.69
2022-08-05T13:41:01.466Z,100948.59
2022-08-05T13:43:45.266Z,100952.44
2022-08-05T13:46:43.697Z,100961.22
2022-08-05T13:49:15.369Z,100964.16
2022-08-05T13:51:45.825Z,100964.91
2022-08-05T13:54:17.207Z,100968.56
2022-08-05T13:56:52.015Z,100969.38
2022-08-05T13:59:27.232Z,100975.03
2022-08-05T14:02:00.069Z,100975.31
2022-08-05T14:04:49.922Z,100982.47
2022-08-05T14:07:25.634Z,100981.91
2022-08-05T14:10:13.122Z,100976.97
2022-08-05T14:12:48.436Z,100983.75
2022-08-05T14:16:07.938Z,100984.88
2022-08-05T14:18:15.182Z,100997.72
2022-08-05T14:20:48.760Z,100987.94
2022-08-05T14:23:23.462Z,100988.22
2022-08-05T14:25:58.991Z,100993.59
2022-08-05T14:28:30.049Z,100997.25
2022-08-05T14:31:03.231Z,100994.00
2022-08-05T14:33:59.121Z,100990.91
2022-08-05T14:36:29.595Z,100991.09
2022-08-05T14:38:59.982Z,100994.94
2022-08-05T14:41:32.507Z,100992.53
2022-08-05T14:44:09.633Z,100985.94
2022-08-05T14:46:52.437Z,100987.09
2022-08-05T14:49:22.095Z,100993.75
2022-08-05T14:51:51.753Z,100995.53
2022-08-05T14:54:27.639Z,100988.88
2022-08-05T14:57:00.302Z,101000.38
2022-08-05T14:59:35.362Z,100988.47
2022-08-05T15:02:14.613Z,100999.94
2022-08-05T15:04:47.927Z,100999.94
2022-08-05T15:08:06.078Z,101000.38
2022-08-05T15:10:10.400Z,100995.56
2022-08-05T15:12:59.652Z,101001.22
2022-08-05T15:15:55.585Z,101000.06
2022-08-05T15:18:23.407Z,101006.66
2022-08-05T15:20:53.158Z,101001.06
2022-08-05T15:23:22.987Z,100989.22
2022-08-05T15:25:55.912Z,100994.72
2022-08-05T15:28:28.243Z,100992.78
2022-08-05T15:30:59.485Z,100992.63
2022-08-05T15:34:04.469Z,100994.34
2022-08-05T15:36:25.837Z,100995.53
2022-08-05T15:40:41.028Z,100996.53
2022-08-05T15:41:55.771Z,100993.31
2022-08-05T15:44:30.444Z,100992.16
2022-08-05T15:47:00.631Z,100990.78
2022-08-05T15:49:53.397Z,100999.13
2022-08-05T15:52:52.320Z,100996.44
2022-08-05T15:55:16.572Z,101005.63
2022-08-05T15:57:48.985Z,101007.88
2022-08-05T16:00:26.358Z,101005.78
2022-08-05T16:03:09.292Z,101009.28
2022-08-05T16:05:41.826Z,101013.94
2022-08-05T16:08:11.501Z,101028.91
2022-08-05T16:10:45.786Z,101038.63
2022-08-05T16:13:19.585Z,101029.50
2022-08-05T16:15:53.798Z,101031.78
2022-08-05T16:18:29.034Z,101024.25
2022-08-05T16:21:04.216Z,101034.97
2022-08-05T16:23:54.538Z,101033.25
2022-08-05T16:26:26.636Z,101037.56
2022-08-05T16:28:57.119Z,101038.13
2022-08-05T16:31:27.719Z,101042.31
2022-08-05T16:34:17.489Z,101050.63
2022-08-05T16:36:50.155Z,101045.38
2022-08-05T16:39:22.399Z,101061.78
2022-08-05T16:42:16.005Z,101059.47
2022-08-05T16:44:54.187Z,101055.34
2022-08-05T16:47:35.837Z,101055.22
2022-08-05T16:50:12.927Z,101062.28
2022-08-05T16:52:46.082Z,101072.19
2022-08-05T16:55:15.923Z,101067.78
2022-08-05T16:58:00.012Z,101068.50
2022-08-05T17:00:35.017Z,101069.50
2022-08-05T17:03:09.151Z,101069.50
2022-08-05T17:05:48.834Z,101080.25
2022-08-05T17:08:35.936Z,101078.53
2022-08-05T17:11:17.048Z,101081.94
2022-08-05T17:13:47.129Z,101084.63
2022-08-05T17:16:36.770Z,101082.22
2022-08-05T17:19:09.684Z,101095.13
2022-08-05T17:21:40.970Z,101097.97
2022-08-05T17:24:35.099Z,101097.25
2022-08-05T17:27:12.153Z,101103.00
2022-08-05T17:29:48.927Z,101105.53
2022-08-05T17:32:21.117Z,101105.81
2022-08-05T17:34:54.970Z,101108.50
2022-08-05T17:37:41.895Z,101109.72
2022-08-05T17:40:22.518Z,101110.31
2022-08-05T17:42:53.215Z,101111.19
2022-08-05T17:45:25.134Z,101110.81
2022-08-05T17:48:08.622Z,101118.59
2022-08-05T17:50:38.480Z,101119.09
2022-08-05T17:53:08.845Z,101124.47
2022-08-05T17:55:41.326Z,101126.56
2022-08-05T17:58:13.371Z,101137.69
2022-08-05T18:00:47.063Z,101135.50
2022-08-05T18:03:56.509Z,101140.41
2022-08-05T18:06:11.138Z,101144.59
2022-08-05T18:08:44.577Z,101150.72
2022-08-05T18:11:23.952Z,101153.38
2022-08-05T18:14:03.708Z,101160.00
2022-08-05T18:16:34.773Z,101167.41
2022-08-05T18:19:05.757Z,101171.22
2022-08-05T18:22:08.474Z,101178.69
2022-08-05T18:24:26.358Z,101179.75
2022-08-05T18:26:59.953Z,101178.03
2022-08-05T18:29:40.693Z,101190.22
2022-08-05T18:34:57.779Z,101200.47
2022-08-05T18:37:34.548Z,101191.91
2022-08-05T18:40:33.793Z,101197.41
2022-08-05T18:43:05.153Z,101201.53
2022-08-05T18:45:41.273Z,101208.72
2022-08-05T18:48:17.460Z,101210.91
2022-08-05T18:52:04.052Z,101214.19
2022-08-05T18:54:02.889Z,101212.59
2022-08-05T18:56:32.559Z,101215.03
2022-08-05T18:59:42.035Z,101213.06
2022-08-05T19:01:58.039Z,101222.16
2022-08-05T19:04:29.363Z,101222.28
2022-08-05T19:06:59.036Z,101228.00
2022-08-05T19:09:28.685Z,101233.97
2022-08-05T19:12:10.499Z,101227.88
2022-08-05T19:15:00.610Z,101230.16
2022-08-05T19:17:59.362Z,101235.38
2022-08-05T19:20:21.994Z,101248.06
2022-08-05T19:22:53.443Z,101242.88
2022-08-05T19:25:30.111Z,101235.94
2022-08-05T19:28:00.405Z,101248.81
2022-08-05T19:30:33.232Z,101247.22
2022-08-05T19:33:04.634Z,101258.16
2022-08-05T19:35:56.661Z,101261.19
2022-08-05T19:38:26.380Z,101265.28
2022-08-05T19:40:56.547Z,101271.06
2022-08-05T19:44:05.675Z,101279.66
2022-08-05T19:46:30.113Z,101281.97
2022-08-05T19:49:01.139Z,101281.53
2022-08-05T19:51:56.429Z,101300.72
2022-08-05T19:54:31.295Z,101308.56
2022-08-05T19:57:02.049Z,101315.53
2022-08-05T19:59:55.859Z,101318.63
2022-08-05T20:02:26.358Z,101321.41
2022-08-05T20:04:58.796Z,101330.47
2022-08-05T20:07:46.538Z,101328.00
2022-08-05T20:10:22.196Z,101338.84
2022-08-05T20:12:55.088Z,101340.84
2022-08-05T20:15:52.535Z,101346.72
2022-08-05T20:18:33.390Z,101348.53
2022-08-05T20:21:06.806Z,101356.97
2022-08-05T20:23:39.378Z,101352.19
2022-08-05T20:26:21.223Z,101351.41
2022-08-05T20:28:54.079Z,101358.91
2022-08-05T20:31:36.759Z,101367.78
2022-08-05T20:34:15.666Z,101364.25
2022-08-05T20:36:45.402Z,101369.16
2022-08-05T20:39:16.173Z,101380.03
2022-08-05T20:41:47.932Z,101378.75
2022-08-05T20:44:30.591Z,101381.00
2022-08-05T20:47:01.282Z,101381.09
2022-08-05T20:49:39.990Z,101385.78
2022-08-05T20:52:10.523Z,101388.34
2022-08-05T20:54:43.540Z,101394.75
2022-08-05T20:57:43.912Z,101394.97
2022-08-05T21:00:41.119Z,101397.06
2022-08-05T21:03:07.943Z,101399.06
2022-08-05T21:05:53.594Z,101399.59
2022-08-05T21:08:33.148Z,101399.84
2022-08-05T21:11:12.593Z,101404.72
2022-08-05T21:13:55.531Z,101404.94
2022-08-05T21:16:29.806Z,101409.81
2022-08-05T21:19:01.180Z,101415.44
2022-08-05T21:21:39.882Z,101417.75
2022-08-05T21:24:15.326Z,101416.22
2022-08-05T21:26:58.008Z,101420.25
2022-08-05T21:29:31.411Z,101425.84
2022-08-05T21:32:02.826Z,101425.22
2022-08-05T21:34:35.515Z,101428.06
2022-08-05T21:37:08.284Z,101436.47
2022-08-05T21:39:40.613Z,101435.72
2022-08-05T21:42:41.121Z,101436.84
2022-08-05T21:45:00.627Z,101438.00
2022-08-05T21:47:54.740Z,101432.16
2022-08-05T21:50:19.951Z,101435.94
2022-08-05T21:52:58.739Z,101441.59
2022-08-05T21:56:00.794Z,101442.72
2022-08-05T21:58:19.385Z,101449.38
2022-08-05T22:00:51.505Z,101454.28
2022-08-05T22:03:48.416Z,101453.72
2022-08-05T22:06:11.323Z,101454.91
2022-08-05T22:08:43.934Z,101453.19
2022-08-05T22:11:34.777Z,101453.31
2022-08-05T22:14:34.695Z,101466.13
2022-08-05T22:20:02.125Z,101461.06
2022-08-05T22:22:27.441Z,101470.25
2022-08-05T22:25:18.263Z,101464.47
2022-08-05T22:28:11.308Z,101467.13
2022-08-05T22:30:55.834Z,101475.47
2022-08-05T22:33:55.397Z,101473.91
2022-08-05T22:36:17.682Z,101472.28
2022-08-05T22:38:49.277Z,101477.09
2022-08-05T22:42:04.223Z,101486.34
2022-08-05T22:44:12.804Z,101481.34
2022-08-05T22:46:43.437Z,101478.78
2022-08-05T22:50:17.448Z,101482.34
2022-08-05T22:52:13.794Z,101496.09
2022-08-05T22:54:52.645Z,101492.66
2022-08-05T22:57:25.771Z,101501.69
2022-08-05T22:59:56.188Z,101504.03
2022-08-05T23:02:29.633Z,101503.19
2022-08-05T23:05:02.029Z,101503.38
2022-08-05T23:07:45.354Z,101504.31
2022-08-05T23:10:19.560Z,101512.53
2022-08-05T23:12:55.194Z,101509.28
2022-08-05T23:15:26.852Z,101518.47
2022-08-05T23:18:01.376Z,101514.75
2022-08-05T23:20:32.657Z,101521.31
2022-08-05T23:23:03.648Z,101522.47
2022-08-05T23:25:53.362Z,101525.38
2022-08-05T23:28:29.477Z,101524.78
2022-08-05T23:31:17.030Z,101529.38
2022-08-05T23:34:03.828Z,101529.78
2022-08-05T23:36:38.420Z,101533.41
2022-08-05T23:39:08.782Z,101534.59
2022-08-05T23:41:41.007Z,101540.16
2022-08-05T23:44:24.982Z,101546.66
2022-08-05T23:46:57.606Z,101538.97
2022-08-05T23:49:36.072Z,101545.31
2022-08-05T23:52:19.300Z,101554.63
2022-08-05T23:54:51.129Z,101556.34
2022-08-05T23:57:21.039Z,101557.47
